Terminal Aerodrome Forecast
Issued by NWS Brownsville, TX

Home | Current Version | Previous Version | Text Only | Print | Product List | Glossary On
Versions: 1 2 3 4 5 6 7 8 9 10 11 12 13 14 15
000
FTUS44 KBRO 311730
TAFHRL
TAF
KHRL 311730Z 3118/0118 15012KT P6SM VCTS SCT040CB BKN100
      TEMPO 3118/3120 4SM TSRA BKN025CB
     FM312000 12012G18KT P6SM SCT030 BKN050
     FM010100 13008KT P6SM FEW025=

USA.gov is the U.S. government's official web portal to all federal, state and local government web resources and services.